sensor_id;sensor_type;location;lat;lon;timestamp;P1;durP1;ratioP1;P2;durP2;ratioP2
7707;SDS011;3896;48.758;8.888;2022-10-24T00:00:40;2.63;;;1.10;;
7707;SDS011;3896;48.758;8.888;2022-10-24T00:03:07;1.57;;;1.10;;
7707;SDS011;3896;48.758;8.888;2022-10-24T00:05:33;2.80;;;1.30;;
7707;SDS011;3896;48.758;8.888;2022-10-24T00:07:58;1.13;;;1.03;;
7707;SDS011;3896;48.758;8.888;2022-10-24T00:10:24;3.37;;;1.57;;
7707;SDS011;3896;48.758;8.888;2022-10-24T00:12:51;2.50;;;1.10;;
7707;SDS011;3896;48.758;8.888;2022-10-24T00:15:18;4.17;;;0.93;;
7707;SDS011;3896;48.758;8.888;2022-10-24T00:17:43;4.77;;;1.23;;
7707;SDS011;3896;48.758;8.888;2022-10-24T00:20:09;3.53;;;1.20;;
7707;SDS011;3896;48.758;8.888;2022-10-24T00:22:35;4.10;;;1.30;;
7707;SDS011;3896;48.758;8.888;2022-10-24T00:25:01;6.23;;;1.30;;
7707;SDS011;3896;48.758;8.888;2022-10-24T00:27:27;2.37;;;1.20;;
7707;SDS011;3896;48.758;8.888;2022-10-24T00:29:52;4.57;;;1.83;;
7707;SDS011;3896;48.758;8.888;2022-10-24T00:32:18;3.13;;;1.30;;
7707;SDS011;3896;48.758;8.888;2022-10-24T00:34:44;1.33;;;1.00;;
7707;SDS011;3896;48.758;8.888;2022-10-24T00:37:09;2.60;;;1.20;;
7707;SDS011;3896;48.758;8.888;2022-10-24T00:39:35;4.70;;;1.17;;
7707;SDS011;3896;48.758;8.888;2022-10-24T00:42:01;1.47;;;1.20;;
7707;SDS011;3896;48.758;8.888;2022-10-24T00:44:28;2.87;;;1.83;;
7707;SDS011;3896;48.758;8.888;2022-10-24T00:49:49;4.03;;;1.60;;
7707;SDS011;3896;48.758;8.888;2022-10-24T00:52:36;3.97;;;1.17;;
7707;SDS011;3896;48.758;8.888;2022-10-24T00:55:05;4.57;;;1.53;;
7707;SDS011;3896;48.758;8.888;2022-10-24T00:57:36;5.77;;;1.37;;
7707;SDS011;3896;48.758;8.888;2022-10-24T01:00:10;2.00;;;1.30;;
7707;SDS011;3896;48.758;8.888;2022-10-24T01:02:39;3.30;;;1.40;;
7707;SDS011;3896;48.758;8.888;2022-10-24T01:05:05;4.40;;;1.47;;
7707;SDS011;3896;48.758;8.888;2022-10-24T01:10:17;5.80;;;1.30;;
7707;SDS011;3896;48.758;8.888;2022-10-24T01:15:33;4.10;;;1.17;;
7707;SDS011;3896;48.758;8.888;2022-10-24T01:18:27;4.53;;;1.20;;
7707;SDS011;3896;48.758;8.888;2022-10-24T01:24:16;2.07;;;1.30;;
7707;SDS011;3896;48.758;8.888;2022-10-24T01:29:45;1.80;;;1.27;;
7707;SDS011;3896;48.758;8.888;2022-10-24T01:38:02;5.77;;;1.30;;
7707;SDS011;3896;48.758;8.888;2022-10-24T01:40:51;2.80;;;1.27;;
7707;SDS011;3896;48.758;8.888;2022-10-24T01:43:31;3.53;;;1.40;;
7707;SDS011;3896;48.758;8.888;2022-10-24T01:46:02;2.87;;;1.60;;
7707;SDS011;3896;48.758;8.888;2022-10-24T01:48:34;2.87;;;1.43;;
7707;SDS011;3896;48.758;8.888;2022-10-24T01:51:04;6.87;;;2.43;;
7707;SDS011;3896;48.758;8.888;2022-10-24T01:53:32;3.20;;;1.77;;
7707;SDS011;3896;48.758;8.888;2022-10-24T01:56:00;3.47;;;1.67;;
7707;SDS011;3896;48.758;8.888;2022-10-24T01:58:26;3.67;;;1.97;;
7707;SDS011;3896;48.758;8.888;2022-10-24T02:00:53;5.50;;;1.83;;
7707;SDS011;3896;48.758;8.888;2022-10-24T02:05:55;5.10;;;1.47;;
7707;SDS011;3896;48.758;8.888;2022-10-24T02:08:46;3.20;;;1.63;;
7707;SDS011;3896;48.758;8.888;2022-10-24T02:11:16;2.27;;;1.47;;
7707;SDS011;3896;48.758;8.888;2022-10-24T02:16:10;6.63;;;1.60;;
7707;SDS011;3896;48.758;8.888;2022-10-24T02:18:39;2.67;;;1.57;;
7707;SDS011;3896;48.758;8.888;2022-10-24T02:21:08;10.13;;;2.00;;
7707;SDS011;3896;48.758;8.888;2022-10-24T02:23:46;4.37;;;1.60;;
7707;SDS011;3896;48.758;8.888;2022-10-24T02:27:01;4.17;;;2.07;;
7707;SDS011;3896;48.758;8.888;2022-10-24T02:29:13;7.73;;;1.57;;
7707;SDS011;3896;48.758;8.888;2022-10-24T02:31:43;3.13;;;1.47;;
7707;SDS011;3896;48.758;8.888;2022-10-24T02:34:19;3.80;;;1.40;;
7707;SDS011;3896;48.758;8.888;2022-10-24T02:36:46;5.57;;;1.60;;
7707;SDS011;3896;48.758;8.888;2022-10-24T02:39:14;4.37;;;1.80;;
7707;SDS011;3896;48.758;8.888;2022-10-24T02:41:41;7.90;;;1.60;;
7707;SDS011;3896;48.758;8.888;2022-10-24T02:44:08;4.83;;;1.93;;
7707;SDS011;3896;48.758;8.888;2022-10-24T02:46:36;3.40;;;1.50;;
7707;SDS011;3896;48.758;8.888;2022-10-24T02:49:03;5.17;;;1.87;;
7707;SDS011;3896;48.758;8.888;2022-10-24T02:51:31;9.87;;;2.23;;
7707;SDS011;3896;48.758;8.888;2022-10-24T02:53:59;4.60;;;2.10;;
7707;SDS011;3896;48.758;8.888;2022-10-24T02:56:27;7.30;;;1.97;;
7707;SDS011;3896;48.758;8.888;2022-10-24T02:58:53;4.13;;;1.93;;
7707;SDS011;3896;48.758;8.888;2022-10-24T03:01:19;5.50;;;2.17;;
7707;SDS011;3896;48.758;8.888;2022-10-24T03:03:44;4.17;;;1.70;;
7707;SDS011;3896;48.758;8.888;2022-10-24T03:06:10;10.77;;;2.83;;
7707;SDS011;3896;48.758;8.888;2022-10-24T03:08:36;8.47;;;2.33;;
7707;SDS011;3896;48.758;8.888;2022-10-24T03:11:01;6.07;;;2.37;;
7707;SDS011;3896;48.758;8.888;2022-10-24T03:13:27;8.50;;;2.57;;
7707;SDS011;3896;48.758;8.888;2022-10-24T03:15:53;6.27;;;2.23;;
7707;SDS011;3896;48.758;8.888;2022-10-24T03:18:19;6.17;;;2.67;;
7707;SDS011;3896;48.758;8.888;2022-10-24T03:20:44;9.20;;;2.67;;
7707;SDS011;3896;48.758;8.888;2022-10-24T03:23:10;7.57;;;2.20;;
7707;SDS011;3896;48.758;8.888;2022-10-24T03:25:36;7.23;;;2.13;;
7707;SDS011;3896;48.758;8.888;2022-10-24T03:28:02;5.23;;;2.23;;
7707;SDS011;3896;48.758;8.888;2022-10-24T03:30:28;7.30;;;2.57;;
7707;SDS011;3896;48.758;8.888;2022-10-24T03:32:54;6.83;;;2.40;;
7707;SDS011;3896;48.758;8.888;2022-10-24T03:35:19;7.87;;;3.10;;
7707;SDS011;3896;48.758;8.888;2022-10-24T03:37:45;9.60;;;2.90;;
7707;SDS011;3896;48.758;8.888;2022-10-24T03:40:11;8.37;;;2.20;;
7707;SDS011;3896;48.758;8.888;2022-10-24T03:42:36;2.93;;;2.30;;
7707;SDS011;3896;48.758;8.888;2022-10-24T03:45:02;5.80;;;2.33;;
7707;SDS011;3896;48.758;8.888;2022-10-24T03:47:28;8.13;;;2.20;;
7707;SDS011;3896;48.758;8.888;2022-10-24T03:49:54;6.60;;;2.30;;
7707;SDS011;3896;48.758;8.888;2022-10-24T03:52:19;4.93;;;2.00;;
7707;SDS011;3896;48.758;8.888;2022-10-24T03:54:45;4.73;;;1.80;;
7707;SDS011;3896;48.758;8.888;2022-10-24T03:57:10;7.37;;;2.33;;
7707;SDS011;3896;48.758;8.888;2022-10-24T03:59:36;7.20;;;2.87;;
7707;SDS011;3896;48.758;8.888;2022-10-24T04:02:02;7.73;;;2.33;;
7707;SDS011;3896;48.758;8.888;2022-10-24T04:04:28;6.37;;;2.20;;
7707;SDS011;3896;48.758;8.888;2022-10-24T04:06:54;3.63;;;2.27;;
7707;SDS011;3896;48.758;8.888;2022-10-24T04:09:20;9.97;;;2.27;;
7707;SDS011;3896;48.758;8.888;2022-10-24T04:11:46;4.93;;;2.60;;
7707;SDS011;3896;48.758;8.888;2022-10-24T04:14:12;7.07;;;2.33;;
7707;SDS011;3896;48.758;8.888;2022-10-24T04:16:38;4.50;;;2.00;;
7707;SDS011;3896;48.758;8.888;2022-10-24T04:19:04;5.00;;;2.40;;
7707;SDS011;3896;48.758;8.888;2022-10-24T04:21:30;4.80;;;1.70;;
7707;SDS011;3896;48.758;8.888;2022-10-24T04:23:56;6.90;;;3.17;;
7707;SDS011;3896;48.758;8.888;2022-10-24T04:26:22;5.97;;;2.70;;
7707;SDS011;3896;48.758;8.888;2022-10-24T04:28:48;5.90;;;2.37;;
7707;SDS011;3896;48.758;8.888;2022-10-24T04:31:14;5.60;;;2.80;;
7707;SDS011;3896;48.758;8.888;2022-10-24T04:33:40;10.03;;;2.60;;
7707;SDS011;3896;48.758;8.888;2022-10-24T04:36:05;7.33;;;2.50;;
7707;SDS011;3896;48.758;8.888;2022-10-24T04:38:31;9.43;;;2.70;;
7707;SDS011;3896;48.758;8.888;2022-10-24T04:40:57;6.83;;;2.80;;
7707;SDS011;3896;48.758;8.888;2022-10-24T04:43:23;6.37;;;2.13;;
7707;SDS011;3896;48.758;8.888;2022-10-24T04:45:49;7.20;;;3.43;;
7707;SDS011;3896;48.758;8.888;2022-10-24T04:48:15;6.20;;;3.20;;
7707;SDS011;3896;48.758;8.888;2022-10-24T04:50:42;7.23;;;2.10;;
7707;SDS011;3896;48.758;8.888;2022-10-24T04:53:08;7.40;;;2.47;;
7707;SDS011;3896;48.758;8.888;2022-10-24T04:55:34;7.33;;;2.10;;
7707;SDS011;3896;48.758;8.888;2022-10-24T04:58:00;8.07;;;2.23;;
7707;SDS011;3896;48.758;8.888;2022-10-24T05:00:27;6.33;;;2.27;;
7707;SDS011;3896;48.758;8.888;2022-10-24T05:02:52;6.33;;;2.03;;
7707;SDS011;3896;48.758;8.888;2022-10-24T05:05:18;8.07;;;2.20;;
7707;SDS011;3896;48.758;8.888;2022-10-24T05:07:44;5.83;;;2.40;;
7707;SDS011;3896;48.758;8.888;2022-10-24T05:10:10;5.17;;;2.43;;
7707;SDS011;3896;48.758;8.888;2022-10-24T05:12:37;5.00;;;2.03;;
7707;SDS011;3896;48.758;8.888;2022-10-24T05:15:03;5.17;;;1.90;;
7707;SDS011;3896;48.758;8.888;2022-10-24T05:17:30;5.90;;;2.07;;
7707;SDS011;3896;48.758;8.888;2022-10-24T05:19:56;5.23;;;2.33;;
7707;SDS011;3896;48.758;8.888;2022-10-24T05:22:21;6.03;;;2.20;;
7707;SDS011;3896;48.758;8.888;2022-10-24T05:24:48;5.00;;;2.23;;
7707;SDS011;3896;48.758;8.888;2022-10-24T05:27:13;7.03;;;2.40;;
7707;SDS011;3896;48.758;8.888;2022-10-24T05:29:39;10.60;;;3.03;;
7707;SDS011;3896;48.758;8.888;2022-10-24T05:32:05;8.27;;;2.40;;
7707;SDS011;3896;48.758;8.888;2022-10-24T05:34:31;7.33;;;2.20;;
7707;SDS011;3896;48.758;8.888;2022-10-24T05:36:57;4.37;;;3.03;;
7707;SDS011;3896;48.758;8.888;2022-10-24T05:39:22;8.27;;;2.33;;
7707;SDS011;3896;48.758;8.888;2022-10-24T05:41:48;4.37;;;2.27;;
7707;SDS011;3896;48.758;8.888;2022-10-24T05:46:41;6.07;;;3.13;;
7707;SDS011;3896;48.758;8.888;2022-10-24T05:49:07;6.43;;;2.33;;
7707;SDS011;3896;48.758;8.888;2022-10-24T05:51:33;8.03;;;2.40;;
7707;SDS011;3896;48.758;8.888;2022-10-24T05:53:58;9.73;;;2.90;;
7707;SDS011;3896;48.758;8.888;2022-10-24T05:56:24;8.17;;;2.03;;
7707;SDS011;3896;48.758;8.888;2022-10-24T05:58:50;5.60;;;2.57;;
7707;SDS011;3896;48.758;8.888;2022-10-24T06:01:15;4.33;;;2.50;;
7707;SDS011;3896;48.758;8.888;2022-10-24T06:03:41;7.63;;;2.23;;
7707;SDS011;3896;48.758;8.888;2022-10-24T06:06:07;9.17;;;2.60;;
7707;SDS011;3896;48.758;8.888;2022-10-24T06:08:37;6.40;;;2.07;;
7707;SDS011;3896;48.758;8.888;2022-10-24T06:11:03;5.63;;;2.70;;
7707;SDS011;3896;48.758;8.888;2022-10-24T06:13:33;7.00;;;2.43;;
7707;SDS011;3896;48.758;8.888;2022-10-24T06:15:59;7.37;;;2.40;;
7707;SDS011;3896;48.758;8.888;2022-10-24T06:18:24;6.40;;;2.37;;
7707;SDS011;3896;48.758;8.888;2022-10-24T06:20:50;5.23;;;2.50;;
7707;SDS011;3896;48.758;8.888;2022-10-24T06:23:15;5.57;;;2.30;;
7707;SDS011;3896;48.758;8.888;2022-10-24T06:25:41;5.67;;;2.53;;
7707;SDS011;3896;48.758;8.888;2022-10-24T06:28:07;5.03;;;2.10;;
7707;SDS011;3896;48.758;8.888;2022-10-24T06:30:33;6.40;;;1.90;;
7707;SDS011;3896;48.758;8.888;2022-10-24T06:32:59;4.83;;;1.80;;
7707;SDS011;3896;48.758;8.888;2022-10-24T06:35:26;6.10;;;2.10;;
7707;SDS011;3896;48.758;8.888;2022-10-24T06:37:52;3.73;;;2.07;;
7707;SDS011;3896;48.758;8.888;2022-10-24T06:40:17;6.70;;;2.20;;
7707;SDS011;3896;48.758;8.888;2022-10-24T06:42:43;6.80;;;2.97;;
7707;SDS011;3896;48.758;8.888;2022-10-24T06:45:09;16.03;;;4.67;;
7707;SDS011;3896;48.758;8.888;2022-10-24T06:47:35;9.60;;;3.27;;
7707;SDS011;3896;48.758;8.888;2022-10-24T06:50:01;12.63;;;4.20;;
7707;SDS011;3896;48.758;8.888;2022-10-24T06:52:27;9.23;;;2.97;;
7707;SDS011;3896;48.758;8.888;2022-10-24T06:54:53;8.17;;;2.93;;
7707;SDS011;3896;48.758;8.888;2022-10-24T06:57:19;13.73;;;3.10;;
7707;SDS011;3896;48.758;8.888;2022-10-24T06:59:45;3.43;;;2.30;;
7707;SDS011;3896;48.758;8.888;2022-10-24T07:02:11;7.07;;;2.53;;
7707;SDS011;3896;48.758;8.888;2022-10-24T07:04:38;6.20;;;2.60;;
7707;SDS011;3896;48.758;8.888;2022-10-24T07:07:03;6.73;;;2.47;;
7707;SDS011;3896;48.758;8.888;2022-10-24T07:09:29;5.97;;;2.53;;
7707;SDS011;3896;48.758;8.888;2022-10-24T07:11:55;5.80;;;2.50;;
7707;SDS011;3896;48.758;8.888;2022-10-24T07:14:21;6.20;;;2.70;;
7707;SDS011;3896;48.758;8.888;2022-10-24T07:16:46;7.43;;;2.50;;
7707;SDS011;3896;48.758;8.888;2022-10-24T07:19:12;6.23;;;3.17;;
7707;SDS011;3896;48.758;8.888;2022-10-24T07:21:38;4.43;;;1.90;;
7707;SDS011;3896;48.758;8.888;2022-10-24T07:24:04;4.83;;;1.90;;
7707;SDS011;3896;48.758;8.888;2022-10-24T07:26:30;6.27;;;2.60;;
7707;SDS011;3896;48.758;8.888;2022-10-24T07:28:57;7.57;;;3.00;;
7707;SDS011;3896;48.758;8.888;2022-10-24T07:31:26;6.40;;;2.27;;
7707;SDS011;3896;48.758;8.888;2022-10-24T07:33:54;8.23;;;2.37;;
7707;SDS011;3896;48.758;8.888;2022-10-24T07:36:24;7.17;;;3.00;;
7707;SDS011;3896;48.758;8.888;2022-10-24T07:38:51;7.17;;;2.37;;
7707;SDS011;3896;48.758;8.888;2022-10-24T07:41:18;5.97;;;2.27;;
7707;SDS011;3896;48.758;8.888;2022-10-24T07:43:44;5.20;;;2.23;;
7707;SDS011;3896;48.758;8.888;2022-10-24T07:46:11;4.77;;;2.73;;
7707;SDS011;3896;48.758;8.888;2022-10-24T07:48:38;10.77;;;3.50;;
7707;SDS011;3896;48.758;8.888;2022-10-24T07:51:06;5.97;;;2.47;;
7707;SDS011;3896;48.758;8.888;2022-10-24T07:53:33;6.97;;;2.60;;
7707;SDS011;3896;48.758;8.888;2022-10-24T07:55:59;5.00;;;2.67;;
7707;SDS011;3896;48.758;8.888;2022-10-24T07:58:25;5.30;;;3.07;;
7707;SDS011;3896;48.758;8.888;2022-10-24T08:00:51;6.10;;;2.70;;
7707;SDS011;3896;48.758;8.888;2022-10-24T08:03:16;7.63;;;3.00;;
7707;SDS011;3896;48.758;8.888;2022-10-24T08:05:42;7.13;;;2.70;;
7707;SDS011;3896;48.758;8.888;2022-10-24T08:08:08;3.83;;;2.10;;
7707;SDS011;3896;48.758;8.888;2022-10-24T08:10:34;7.63;;;3.13;;
7707;SDS011;3896;48.758;8.888;2022-10-24T08:12:59;7.67;;;2.50;;
7707;SDS011;3896;48.758;8.888;2022-10-24T08:15:25;10.70;;;2.53;;
7707;SDS011;3896;48.758;8.888;2022-10-24T08:17:52;11.03;;;3.00;;
7707;SDS011;3896;48.758;8.888;2022-10-24T08:20:18;3.50;;;2.07;;
7707;SDS011;3896;48.758;8.888;2022-10-24T08:22:44;3.67;;;2.20;;
7707;SDS011;3896;48.758;8.888;2022-10-24T08:25:10;7.57;;;2.23;;
7707;SDS011;3896;48.758;8.888;2022-10-24T08:27:36;4.50;;;2.10;;
7707;SDS011;3896;48.758;8.888;2022-10-24T08:30:02;7.50;;;2.20;;
7707;SDS011;3896;48.758;8.888;2022-10-24T08:32:28;5.37;;;2.20;;
7707;SDS011;3896;48.758;8.888;2022-10-24T08:34:54;11.27;;;2.57;;
7707;SDS011;3896;48.758;8.888;2022-10-24T08:37:19;3.23;;;2.03;;
7707;SDS011;3896;48.758;8.888;2022-10-24T08:39:45;4.93;;;2.63;;
7707;SDS011;3896;48.758;8.888;2022-10-24T08:42:12;6.63;;;1.60;;
7707;SDS011;3896;48.758;8.888;2022-10-24T08:44:40;5.63;;;2.33;;
7707;SDS011;3896;48.758;8.888;2022-10-24T08:47:20;3.80;;;2.00;;
7707;SDS011;3896;48.758;8.888;2022-10-24T08:50:15;2.97;;;1.93;;
7707;SDS011;3896;48.758;8.888;2022-10-24T08:55:48;5.40;;;2.03;;
7707;SDS011;3896;48.758;8.888;2022-10-24T08:58:23;2.60;;;1.80;;
7707;SDS011;3896;48.758;8.888;2022-10-24T09:00:50;4.87;;;2.47;;
7707;SDS011;3896;48.758;8.888;2022-10-24T09:06:04;6.17;;;2.20;;
7707;SDS011;3896;48.758;8.888;2022-10-24T09:11:31;5.43;;;2.00;;
7707;SDS011;3896;48.758;8.888;2022-10-24T09:14:03;3.27;;;2.10;;
7707;SDS011;3896;48.758;8.888;2022-10-24T09:16:37;4.43;;;2.33;;
7707;SDS011;3896;48.758;8.888;2022-10-24T09:19:07;7.20;;;3.00;;
7707;SDS011;3896;48.758;8.888;2022-10-24T09:21:43;6.60;;;2.47;;
7707;SDS011;3896;48.758;8.888;2022-10-24T09:24:27;4.40;;;1.93;;
7707;SDS011;3896;48.758;8.888;2022-10-24T09:27:04;4.53;;;2.37;;
7707;SDS011;3896;48.758;8.888;2022-10-24T09:29:36;4.17;;;1.50;;
7707;SDS011;3896;48.758;8.888;2022-10-24T09:32:02;1.97;;;1.57;;
7707;SDS011;3896;48.758;8.888;2022-10-24T09:34:28;5.07;;;1.70;;
7707;SDS011;3896;48.758;8.888;2022-10-24T09:36:53;3.77;;;2.03;;
7707;SDS011;3896;48.758;8.888;2022-10-24T09:39:37;5.90;;;2.00;;
7707;SDS011;3896;48.758;8.888;2022-10-24T09:42:02;5.67;;;2.03;;
7707;SDS011;3896;48.758;8.888;2022-10-24T09:44:36;3.57;;;1.90;;
7707;SDS011;3896;48.758;8.888;2022-10-24T09:47:05;6.93;;;2.40;;
7707;SDS011;3896;48.758;8.888;2022-10-24T09:49:45;1.63;;;1.37;;
7707;SDS011;3896;48.758;8.888;2022-10-24T09:52:16;3.17;;;1.70;;
7707;SDS011;3896;48.758;8.888;2022-10-24T09:54:43;5.03;;;1.70;;
7707;SDS011;3896;48.758;8.888;2022-10-24T10:02:15;2.17;;;1.50;;
7707;SDS011;3896;48.758;8.888;2022-10-24T10:07:32;3.23;;;2.43;;
7707;SDS011;3896;48.758;8.888;2022-10-24T10:10:02;4.43;;;2.40;;
7707;SDS011;3896;48.758;8.888;2022-10-24T10:15:00;3.60;;;1.90;;
7707;SDS011;3896;48.758;8.888;2022-10-24T10:17:40;3.50;;;1.70;;
7707;SDS011;3896;48.758;8.888;2022-10-24T10:23:25;3.17;;;1.83;;
7707;SDS011;3896;48.758;8.888;2022-10-24T10:36:46;2.67;;;1.63;;
7707;SDS011;3896;48.758;8.888;2022-10-24T10:39:55;2.60;;;1.90;;
7707;SDS011;3896;48.758;8.888;2022-10-24T10:48:26;4.37;;;1.60;;
7707;SDS011;3896;48.758;8.888;2022-10-24T10:51:17;6.80;;;1.47;;
7707;SDS011;3896;48.758;8.888;2022-10-24T10:53:50;5.27;;;1.53;;
7707;SDS011;3896;48.758;8.888;2022-10-24T10:56:38;4.37;;;1.60;;
7707;SDS011;3896;48.758;8.888;2022-10-24T11:04:58;3.37;;;1.80;;
7707;SDS011;3896;48.758;8.888;2022-10-24T11:07:42;6.73;;;2.20;;
7707;SDS011;3896;48.758;8.888;2022-10-24T11:10:21;2.37;;;1.70;;
7707;SDS011;3896;48.758;8.888;2022-10-24T11:12:51;2.10;;;1.27;;
7707;SDS011;3896;48.758;8.888;2022-10-24T11:15:23;2.90;;;1.80;;
7707;SDS011;3896;48.758;8.888;2022-10-24T11:18:05;2.50;;;1.57;;
7707;SDS011;3896;48.758;8.888;2022-10-24T11:20:37;8.77;;;3.03;;
7707;SDS011;3896;48.758;8.888;2022-10-24T11:25:56;6.97;;;1.40;;
7707;SDS011;3896;48.758;8.888;2022-10-24T11:28:31;1.97;;;1.27;;
7707;SDS011;3896;48.758;8.888;2022-10-24T11:31:21;6.17;;;1.50;;
7707;SDS011;3896;48.758;8.888;2022-10-24T11:34:06;1.63;;;1.40;;
7707;SDS011;3896;48.758;8.888;2022-10-24T11:36:37;1.70;;;1.20;;
7707;SDS011;3896;48.758;8.888;2022-10-24T11:44:19;3.57;;;1.03;;
7707;SDS011;3896;48.758;8.888;2022-10-24T11:47:03;5.67;;;1.93;;
7707;SDS011;3896;48.758;8.888;2022-10-24T11:49:44;4.20;;;1.63;;
7707;SDS011;3896;48.758;8.888;2022-10-24T11:52:22;1.83;;;1.40;;
7707;SDS011;3896;48.758;8.888;2022-10-24T11:54:55;2.00;;;1.03;;
7707;SDS011;3896;48.758;8.888;2022-10-24T11:57:42;3.27;;;1.20;;
7707;SDS011;3896;48.758;8.888;2022-10-24T12:00:17;1.77;;;1.50;;
7707;SDS011;3896;48.758;8.888;2022-10-24T12:02:58;3.20;;;1.33;;
7707;SDS011;3896;48.758;8.888;2022-10-24T12:08:28;2.60;;;1.53;;
7707;SDS011;3896;48.758;8.888;2022-10-24T12:11:17;2.50;;;1.50;;
7707;SDS011;3896;48.758;8.888;2022-10-24T12:14:12;4.27;;;2.00;;
7707;SDS011;3896;48.758;8.888;2022-10-24T12:19:12;2.60;;;1.67;;
7707;SDS011;3896;48.758;8.888;2022-10-24T12:21:43;3.33;;;1.33;;
7707;SDS011;3896;48.758;8.888;2022-10-24T12:24:25;2.50;;;1.47;;
7707;SDS011;3896;48.758;8.888;2022-10-24T12:27:00;6.33;;;1.23;;
7707;SDS011;3896;48.758;8.888;2022-10-24T12:29:29;3.43;;;1.40;;
7707;SDS011;3896;48.758;8.888;2022-10-24T12:31:57;4.43;;;1.30;;
7707;SDS011;3896;48.758;8.888;2022-10-24T12:34:43;3.67;;;2.83;;
7707;SDS011;3896;48.758;8.888;2022-10-24T12:37:30;2.20;;;1.23;;
7707;SDS011;3896;48.758;8.888;2022-10-24T12:39:58;2.13;;;1.30;;
7707;SDS011;3896;48.758;8.888;2022-10-24T12:44:50;5.77;;;1.80;;
7707;SDS011;3896;48.758;8.888;2022-10-24T12:52:49;3.13;;;1.10;;
7707;SDS011;3896;48.758;8.888;2022-10-24T12:58:02;8.40;;;2.30;;
7707;SDS011;3896;48.758;8.888;2022-10-24T13:00:51;3.63;;;2.10;;
7707;SDS011;3896;48.758;8.888;2022-10-24T13:06:09;3.17;;;1.37;;
7707;SDS011;3896;48.758;8.888;2022-10-24T13:17:48;2.07;;;1.27;;
7707;SDS011;3896;48.758;8.888;2022-10-24T13:20:14;4.90;;;1.23;;
7707;SDS011;3896;48.758;8.888;2022-10-24T13:22:46;4.57;;;1.20;;
7707;SDS011;3896;48.758;8.888;2022-10-24T13:25:57;3.23;;;1.10;;
7707;SDS011;3896;48.758;8.888;2022-10-24T13:30:48;1.57;;;1.30;;
7707;SDS011;3896;48.758;8.888;2022-10-24T13:36:17;2.63;;;1.53;;
7707;SDS011;3896;48.758;8.888;2022-10-24T13:38:51;6.83;;;1.43;;
7707;SDS011;3896;48.758;8.888;2022-10-24T13:41:30;2.23;;;1.73;;
7707;SDS011;3896;48.758;8.888;2022-10-24T13:44:01;3.50;;;1.10;;
7707;SDS011;3896;48.758;8.888;2022-10-24T13:49:27;1.73;;;1.17;;
7707;SDS011;3896;48.758;8.888;2022-10-24T13:52:02;1.53;;;1.33;;
7707;SDS011;3896;48.758;8.888;2022-10-24T13:54:35;1.47;;;1.13;;
7707;SDS011;3896;48.758;8.888;2022-10-24T13:57:02;2.83;;;1.37;;
7707;SDS011;3896;48.758;8.888;2022-10-24T13:59:51;3.30;;;1.10;;
7707;SDS011;3896;48.758;8.888;2022-10-24T14:02:19;1.73;;;1.23;;
7707;SDS011;3896;48.758;8.888;2022-10-24T14:04:47;2.17;;;1.67;;
7707;SDS011;3896;48.758;8.888;2022-10-24T14:07:27;2.10;;;1.10;;
7707;SDS011;3896;48.758;8.888;2022-10-24T14:09:56;1.30;;;1.00;;
7707;SDS011;3896;48.758;8.888;2022-10-24T14:12:24;3.13;;;1.10;;
7707;SDS011;3896;48.758;8.888;2022-10-24T14:14:53;1.40;;;1.30;;
7707;SDS011;3896;48.758;8.888;2022-10-24T14:17:24;2.53;;;1.10;;
7707;SDS011;3896;48.758;8.888;2022-10-24T14:19:59;1.90;;;1.40;;
7707;SDS011;3896;48.758;8.888;2022-10-24T14:22:29;1.10;;;1.00;;
7707;SDS011;3896;48.758;8.888;2022-10-24T14:25:19;2.70;;;1.40;;
7707;SDS011;3896;48.758;8.888;2022-10-24T14:27:45;1.37;;;1.23;;
7707;SDS011;3896;48.758;8.888;2022-10-24T14:30:15;4.63;;;1.43;;
7707;SDS011;3896;48.758;8.888;2022-10-24T14:32:43;3.10;;;1.40;;
7707;SDS011;3896;48.758;8.888;2022-10-24T14:35:11;1.93;;;1.30;;
7707;SDS011;3896;48.758;8.888;2022-10-24T14:37:38;1.40;;;1.03;;
7707;SDS011;3896;48.758;8.888;2022-10-24T14:40:05;4.67;;;1.40;;
7707;SDS011;3896;48.758;8.888;2022-10-24T14:42:39;1.27;;;1.10;;
7707;SDS011;3896;48.758;8.888;2022-10-24T14:45:05;3.77;;;1.40;;
7707;SDS011;3896;48.758;8.888;2022-10-24T14:47:49;2.10;;;1.13;;
7707;SDS011;3896;48.758;8.888;2022-10-24T14:53:04;2.80;;;1.30;;
7707;SDS011;3896;48.758;8.888;2022-10-24T14:55:29;4.43;;;1.33;;
7707;SDS011;3896;48.758;8.888;2022-10-24T14:57:56;2.33;;;1.30;;
7707;SDS011;3896;48.758;8.888;2022-10-24T15:00:25;2.80;;;1.40;;
7707;SDS011;3896;48.758;8.888;2022-10-24T15:02:59;4.03;;;1.47;;
7707;SDS011;3896;48.758;8.888;2022-10-24T15:05:27;4.03;;;1.40;;
7707;SDS011;3896;48.758;8.888;2022-10-24T15:10:44;2.03;;;1.23;;
7707;SDS011;3896;48.758;8.888;2022-10-24T15:13:11;1.10;;;1.00;;
7707;SDS011;3896;48.758;8.888;2022-10-24T15:18:14;3.43;;;1.27;;
7707;SDS011;3896;48.758;8.888;2022-10-24T15:20:44;1.70;;;1.00;;
7707;SDS011;3896;48.758;8.888;2022-10-24T15:25:45;3.10;;;1.97;;
7707;SDS011;3896;48.758;8.888;2022-10-24T15:29:03;2.03;;;1.33;;
7707;SDS011;3896;48.758;8.888;2022-10-24T15:31:00;2.47;;;1.47;;
7707;SDS011;3896;48.758;8.888;2022-10-24T15:33:26;6.77;;;2.00;;
7707;SDS011;3896;48.758;8.888;2022-10-24T15:35:51;3.63;;;1.50;;
7707;SDS011;3896;48.758;8.888;2022-10-24T15:38:17;3.33;;;1.23;;
7707;SDS011;3896;48.758;8.888;2022-10-24T15:40:43;2.37;;;1.13;;
7707;SDS011;3896;48.758;8.888;2022-10-24T15:43:14;2.63;;;1.23;;
7707;SDS011;3896;48.758;8.888;2022-10-24T15:45:41;1.23;;;1.10;;
7707;SDS011;3896;48.758;8.888;2022-10-24T15:48:08;3.90;;;1.67;;
7707;SDS011;3896;48.758;8.888;2022-10-24T15:50:33;2.20;;;1.20;;
7707;SDS011;3896;48.758;8.888;2022-10-24T15:53:00;1.90;;;1.20;;
7707;SDS011;3896;48.758;8.888;2022-10-24T15:55:29;1.97;;;1.40;;
7707;SDS011;3896;48.758;8.888;2022-10-24T15:57:56;3.60;;;1.20;;
7707;SDS011;3896;48.758;8.888;2022-10-24T16:00:24;1.07;;;1.00;;
7707;SDS011;3896;48.758;8.888;2022-10-24T16:02:51;1.13;;;1.03;;
7707;SDS011;3896;48.758;8.888;2022-10-24T16:05:24;3.00;;;1.40;;
7707;SDS011;3896;48.758;8.888;2022-10-24T16:07:52;4.33;;;1.30;;
7707;SDS011;3896;48.758;8.888;2022-10-24T16:10:19;3.53;;;1.30;;
7707;SDS011;3896;48.758;8.888;2022-10-24T16:12:46;1.50;;;1.13;;
7707;SDS011;3896;48.758;8.888;2022-10-24T16:15:20;4.37;;;1.30;;
7707;SDS011;3896;48.758;8.888;2022-10-24T16:18:06;2.60;;;1.30;;
7707;SDS011;3896;48.758;8.888;2022-10-24T16:20:33;1.13;;;1.13;;
7707;SDS011;3896;48.758;8.888;2022-10-24T16:22:59;3.37;;;1.47;;
7707;SDS011;3896;48.758;8.888;2022-10-24T16:25:26;1.60;;;1.40;;
7707;SDS011;3896;48.758;8.888;2022-10-24T16:27:54;3.13;;;1.70;;
7707;SDS011;3896;48.758;8.888;2022-10-24T16:30:20;2.20;;;1.13;;
7707;SDS011;3896;48.758;8.888;2022-10-24T16:32:48;2.20;;;1.63;;
7707;SDS011;3896;48.758;8.888;2022-10-24T16:35:17;1.73;;;1.33;;
7707;SDS011;3896;48.758;8.888;2022-10-24T16:37:49;3.77;;;1.80;;
7707;SDS011;3896;48.758;8.888;2022-10-24T16:40:16;2.97;;;2.00;;
7707;SDS011;3896;48.758;8.888;2022-10-24T16:42:42;2.60;;;1.60;;
7707;SDS011;3896;48.758;8.888;2022-10-24T16:45:08;2.93;;;1.40;;
7707;SDS011;3896;48.758;8.888;2022-10-24T16:47:34;3.90;;;1.87;;
7707;SDS011;3896;48.758;8.888;2022-10-24T16:50:00;5.10;;;1.57;;
7707;SDS011;3896;48.758;8.888;2022-10-24T16:52:26;4.83;;;2.40;;
7707;SDS011;3896;48.758;8.888;2022-10-24T16:54:52;5.33;;;1.40;;
7707;SDS011;3896;48.758;8.888;2022-10-24T16:57:21;1.60;;;1.50;;
7707;SDS011;3896;48.758;8.888;2022-10-24T16:59:48;2.93;;;1.80;;
7707;SDS011;3896;48.758;8.888;2022-10-24T17:02:14;3.53;;;2.03;;
7707;SDS011;3896;48.758;8.888;2022-10-24T17:04:41;1.60;;;1.50;;
7707;SDS011;3896;48.758;8.888;2022-10-24T17:07:08;4.23;;;1.50;;
7707;SDS011;3896;48.758;8.888;2022-10-24T17:09:34;2.37;;;1.37;;
7707;SDS011;3896;48.758;8.888;2022-10-24T17:12:00;3.53;;;1.20;;
7707;SDS011;3896;48.758;8.888;2022-10-24T17:14:26;1.00;;;1.00;;
7707;SDS011;3896;48.758;8.888;2022-10-24T17:16:52;3.03;;;1.50;;
7707;SDS011;3896;48.758;8.888;2022-10-24T17:19:18;2.07;;;1.40;;
7707;SDS011;3896;48.758;8.888;2022-10-24T17:21:44;1.67;;;1.50;;
7707;SDS011;3896;48.758;8.888;2022-10-24T17:24:12;1.97;;;1.20;;
7707;SDS011;3896;48.758;8.888;2022-10-24T17:26:40;5.00;;;1.57;;
7707;SDS011;3896;48.758;8.888;2022-10-24T17:29:07;1.50;;;1.20;;
7707;SDS011;3896;48.758;8.888;2022-10-24T17:31:36;2.03;;;1.20;;
7707;SDS011;3896;48.758;8.888;2022-10-24T17:34:01;3.80;;;1.43;;
7707;SDS011;3896;48.758;8.888;2022-10-24T17:36:29;1.83;;;1.27;;